createdAt,value
2022-09-23T00:01:58.385Z,8.53
2022-09-23T00:04:27.475Z,8.48
2022-09-23T00:06:56.644Z,8.46
2022-09-23T00:09:26.080Z,8.49
2022-09-23T00:11:55.523Z,8.48
2022-09-23T00:14:26.098Z,8.44
2022-09-23T00:16:55.574Z,8.43
2022-09-23T00:19:24.851Z,8.44
2022-09-23T00:21:54.009Z,8.43
2022-09-23T00:24:23.723Z,8.44
2022-09-23T00:26:52.902Z,8.40
2022-09-23T00:29:23.655Z,8.38
2022-09-23T00:31:54.470Z,8.35
2022-09-23T00:34:23.657Z,8.36
2022-09-23T00:36:52.827Z,8.37
2022-09-23T00:39:22.241Z,8.37
2022-09-23T00:41:51.732Z,8.36
2022-09-23T00:44:47.089Z,8.36
2022-09-23T00:47:22.877Z,8.33
2022-09-23T00:50:00.279Z,8.35
2022-09-23T00:52:31.688Z,8.33
2022-09-23T00:55:06.364Z,8.31
2022-09-23T00:57:37.190Z,8.35
2022-09-23T01:00:08.081Z,8.33
2022-09-23T01:02:39.562Z,8.34
2022-09-23T01:05:10.310Z,8.31
2022-09-23T01:07:39.871Z,8.28
2022-09-23T01:10:11.944Z,8.20
2022-09-23T01:13:09.571Z,8.17
2022-09-23T01:15:47.851Z,8.10
2022-09-23T01:18:31.227Z,8.03
2022-09-23T01:21:16.708Z,8.02
2022-09-23T01:24:16.855Z,8.01
2022-09-23T01:27:02.217Z,8.01
2022-09-23T01:30:04.113Z,8.03
2022-09-23T01:32:58.488Z,7.98
2022-09-23T01:35:38.599Z,7.89
2022-09-23T01:38:21.338Z,7.82
2022-09-23T01:40:56.004Z,7.85
2022-09-23T01:43:32.420Z,7.87
2022-09-23T01:46:08.404Z,7.84
2022-09-23T01:48:46.514Z,7.82
2022-09-23T01:51:22.243Z,7.81
2022-09-23T01:53:56.411Z,7.85
2022-09-23T01:56:29.634Z,7.83
2022-09-23T01:59:03.560Z,7.82
2022-09-23T02:01:39.324Z,7.81
2022-09-23T02:04:17.495Z,7.78
2022-09-23T02:06:51.124Z,7.69
2022-09-23T02:09:25.883Z,7.67
2022-09-23T02:12:04.948Z,7.70
2022-09-23T02:14:39.939Z,7.73
2022-09-23T02:17:13.134Z,7.76
2022-09-23T02:19:48.134Z,7.70
2022-09-23T02:22:21.957Z,7.69
2022-09-23T02:24:51.377Z,7.62
2022-09-23T02:27:27.054Z,7.69
2022-09-23T02:30:04.465Z,7.64
2022-09-23T02:32:42.152Z,7.64
2022-09-23T02:35:22.660Z,7.60
2022-09-23T02:37:59.347Z,7.64
2022-09-23T02:40:34.783Z,7.64
2022-09-23T02:43:08.955Z,7.64
2022-09-23T02:45:39.236Z,7.61
2022-09-23T02:48:13.707Z,7.62
2022-09-23T02:50:44.795Z,7.63
2022-09-23T02:53:15.789Z,7.66
2022-09-23T02:55:45.740Z,7.68
2022-09-23T02:58:15.546Z,7.71
2022-09-23T03:00:57.191Z,7.69
2022-09-23T03:03:40.451Z,7.62
2022-09-23T03:06:27.771Z,7.67
2022-09-23T03:09:03.674Z,7.67
2022-09-23T03:11:35.451Z,7.68
2022-09-23T03:14:17.595Z,7.69
2022-09-23T03:16:55.903Z,7.66
2022-09-23T03:19:32.967Z,7.68
2022-09-23T03:22:09.671Z,7.68
2022-09-23T03:24:42.917Z,7.69
2022-09-23T03:27:17.885Z,7.68
2022-09-23T03:29:49.680Z,7.68
2022-09-23T03:32:21.893Z,7.65
2022-09-23T03:34:53.474Z,7.65
2022-09-23T03:37:31.366Z,7.70
2022-09-23T03:40:09.974Z,7.70
2022-09-23T03:42:40.489Z,7.72
2022-09-23T03:45:13.079Z,7.73
2022-09-23T03:47:42.511Z,7.74
2022-09-23T03:50:13.401Z,7.76
2022-09-23T03:52:44.713Z,7.79
2022-09-23T03:55:14.129Z,7.83
2022-09-23T03:57:43.399Z,7.79
2022-09-23T04:00:14.739Z,7.80
2022-09-23T04:02:44.328Z,7.82
2022-09-23T04:05:14.524Z,7.81
2022-09-23T04:07:45.403Z,7.80
2022-09-23T04:10:15.510Z,7.84
2022-09-23T04:12:44.676Z,7.85
2022-09-23T04:15:13.860Z,7.79
2022-09-23T04:17:43.217Z,7.77
2022-09-23T04:20:12.387Z,7.78
2022-09-23T04:22:41.565Z,7.83
2022-09-23T04:25:12.601Z,7.86
2022-09-23T04:27:41.772Z,7.85
2022-09-23T04:30:12.123Z,7.88
2022-09-23T04:32:41.658Z,7.90
2022-09-23T04:35:10.962Z,7.93
2022-09-23T04:37:40.135Z,7.97
2022-09-23T04:40:12.237Z,7.99
2022-09-23T04:42:41.545Z,8.00
2022-09-23T04:45:11.728Z,8.00
2022-09-23T04:47:40.888Z,7.99
2022-09-23T04:50:10.541Z,8.00
2022-09-23T04:52:39.900Z,8.02
2022-09-23T04:55:11.349Z,8.03
2022-09-23T04:57:44.853Z,8.01
2022-09-23T05:00:15.325Z,8.08
2022-09-23T05:02:45.460Z,8.05
2022-09-23T05:05:15.778Z,8.05
2022-09-23T05:07:45.175Z,8.11
2022-09-23T05:10:14.436Z,8.14
2022-09-23T05:12:45.142Z,8.16
2022-09-23T05:15:15.220Z,8.23
2022-09-23T05:17:44.750Z,8.27
2022-09-23T05:20:13.893Z,8.29
2022-09-23T05:22:43.264Z,8.31
2022-09-23T05:25:12.427Z,8.36
2022-09-23T05:27:42.317Z,8.40
2022-09-23T05:30:13.887Z,8.42
2022-09-23T05:32:43.059Z,8.47
2022-09-23T05:35:12.622Z,8.51
2022-09-23T05:37:41.789Z,8.56
2022-09-23T05:40:11.513Z,8.66
2022-09-23T05:42:41.290Z,8.71
2022-09-23T05:45:12.591Z,8.74
2022-09-23T05:47:41.972Z,8.80
2022-09-23T05:50:11.642Z,8.83
2022-09-23T05:52:40.887Z,8.94
2022-09-23T05:55:11.750Z,8.95
2022-09-23T05:57:40.951Z,9.01
2022-09-23T06:00:13.115Z,9.10
2022-09-23T06:02:42.644Z,9.14
2022-09-23T06:05:12.440Z,9.23
2022-09-23T06:07:41.625Z,9.32
2022-09-23T06:10:11.427Z,9.40
2022-09-23T06:12:42.458Z,9.47
2022-09-23T06:15:13.526Z,9.49
2022-09-23T06:17:42.729Z,9.58
2022-09-23T06:20:12.300Z,9.67
2022-09-23T06:22:41.719Z,9.75
2022-09-23T06:25:12.307Z,9.78
2022-09-23T06:27:41.658Z,9.86
2022-09-23T06:30:13.715Z,9.96
2022-09-23T06:32:42.916Z,10.02
2022-09-23T06:35:23.986Z,10.07
2022-09-23T06:37:55.525Z,10.16
2022-09-23T06:40:25.051Z,10.21
2022-09-23T06:42:59.978Z,10.29
2022-09-23T06:45:31.284Z,10.38
2022-09-23T06:48:01.103Z,10.44
2022-09-23T06:50:31.011Z,10.48
2022-09-23T06:53:00.266Z,10.55
2022-09-23T06:55:29.613Z,10.62
2022-09-23T06:58:00.165Z,10.66
2022-09-23T07:00:30.563Z,10.71
2022-09-23T07:03:00.136Z,10.80
2022-09-23T07:05:29.440Z,10.90
2022-09-23T07:07:59.669Z,10.97
2022-09-23T07:10:29.276Z,11.04
2022-09-23T07:13:02.226Z,11.13
2022-09-23T07:15:34.037Z,11.24
2022-09-23T07:18:03.306Z,11.30
2022-09-23T07:20:32.701Z,11.41
2022-09-23T07:23:01.880Z,11.50
2022-09-23T07:25:34.175Z,11.55
2022-09-23T07:28:03.803Z,11.64
2022-09-23T07:30:37.140Z,11.74
2022-09-23T07:33:23.717Z,11.84
2022-09-23T07:35:56.743Z,11.91
2022-09-23T07:38:30.164Z,12.00
2022-09-23T07:41:04.385Z,12.11
2022-09-23T07:43:34.317Z,12.21
2022-09-23T07:46:09.906Z,12.28
2022-09-23T07:48:40.109Z,12.40
2022-09-23T07:51:10.416Z,12.48
2022-09-23T07:53:39.311Z,12.52
2022-09-23T07:56:08.705Z,12.59
2022-09-23T07:58:37.886Z,12.71
2022-09-23T08:01:10.803Z,12.79
2022-09-23T08:03:40.927Z,12.89
2022-09-23T08:06:12.269Z,12.95
2022-09-23T08:08:43.758Z,13.01
2022-09-23T08:11:14.673Z,13.11
2022-09-23T08:13:44.344Z,13.22
2022-09-23T08:16:15.015Z,13.28
2022-09-23T08:18:46.642Z,13.35
2022-09-23T08:21:21.439Z,13.41
2022-09-23T08:23:51.788Z,13.51
2022-09-23T08:26:22.435Z,13.60
2022-09-23T08:28:55.130Z,13.68
2022-09-23T08:31:25.917Z,13.77
2022-09-23T08:33:59.972Z,13.84
2022-09-23T08:36:29.288Z,13.94
2022-09-23T08:38:58.630Z,13.97
2022-09-23T08:41:37.270Z,13.99
2022-09-23T08:44:13.862Z,14.10
2022-09-23T08:46:47.988Z,14.18
2022-09-23T08:49:25.402Z,14.27
2022-09-23T08:51:56.088Z,14.30
2022-09-23T08:54:30.866Z,14.34
2022-09-23T08:57:03.577Z,14.44
2022-09-23T08:59:41.674Z,14.56
2022-09-23T09:02:19.370Z,14.65
2022-09-23T09:04:54.052Z,14.72
2022-09-23T09:07:36.570Z,14.80
2022-09-23T09:10:16.470Z,14.92
2022-09-23T09:12:48.156Z,15.03
2022-09-23T09:15:20.641Z,15.14
2022-09-23T09:18:01.327Z,15.22
2022-09-23T09:20:40.127Z,15.27
2022-09-23T09:23:22.658Z,15.35
2022-09-23T09:25:54.170Z,15.36
2022-09-23T09:28:31.044Z,15.40
2022-09-23T09:31:03.930Z,15.37
2022-09-23T09:33:44.850Z,15.41
2022-09-23T09:36:27.038Z,15.30
2022-09-23T09:38:58.595Z,15.19
2022-09-23T09:41:31.312Z,15.22
2022-09-23T09:44:03.905Z,15.30
2022-09-23T09:46:54.660Z,15.21
2022-09-23T09:49:38.097Z,15.20
2022-09-23T09:52:22.559Z,15.21
2022-09-23T09:54:52.539Z,15.22
2022-09-23T09:57:33.684Z,15.17
2022-09-23T10:00:38.234Z,15.25
2022-09-23T10:03:26.532Z,15.26
2022-09-23T10:05:57.741Z,15.19
2022-09-23T10:08:32.194Z,15.25
2022-09-23T10:11:07.631Z,15.22
2022-09-23T10:13:38.101Z,15.22
2022-09-23T10:16:08.769Z,15.26
2022-09-23T10:18:40.283Z,15.25
2022-09-23T10:21:14.376Z,15.15
2022-09-23T10:23:45.991Z,15.20
2022-09-23T10:26:17.472Z,15.22
2022-09-23T10:28:50.526Z,15.26
2022-09-23T10:31:25.864Z,15.28
2022-09-23T10:33:57.394Z,15.18
2022-09-23T10:36:28.992Z,15.24
2022-09-23T10:39:20.795Z,15.26
2022-09-23T10:42:29.724Z,15.25
2022-09-23T10:45:38.483Z,15.22
2022-09-23T10:48:21.766Z,15.21
2022-09-23T10:50:53.682Z,15.17
2022-09-23T10:53:37.009Z,15.14
2022-09-23T10:56:31.898Z,15.16
2022-09-23T10:59:33.142Z,15.20
2022-09-23T11:02:16.628Z,15.25
2022-09-23T11:05:04.078Z,15.26
2022-09-23T11:07:40.210Z,15.28
2022-09-23T11:10:46.042Z,15.31
2022-09-23T11:13:31.203Z,15.30
2022-09-23T11:16:09.395Z,15.30
2022-09-23T11:19:02.114Z,15.29
2022-09-23T11:21:57.237Z,15.21
2022-09-23T11:24:52.150Z,15.26
2022-09-23T11:27:34.465Z,15.25
2022-09-23T11:30:15.920Z,15.29
2022-09-23T11:35:47.637Z,15.36
2022-09-23T11:38:26.096Z,15.38
2022-09-23T11:41:01.732Z,15.40
2022-09-23T11:43:39.918Z,15.41
2022-09-23T11:46:16.905Z,15.41
2022-09-23T11:48:50.200Z,15.38
2022-09-23T11:51:27.347Z,15.39
2022-09-23T11:54:01.907Z,15.38
2022-09-23T11:56:40.943Z,15.42
2022-09-23T11:59:37.549Z,15.43
2022-09-23T12:02:22.357Z,15.40
2022-09-23T12:05:01.396Z,15.47
2022-09-23T12:07:42.599Z,15.59
2022-09-23T12:10:13.539Z,15.86
2022-09-23T12:12:52.579Z,16.21
2022-09-23T12:15:46.349Z,16.55
2022-09-23T12:18:43.381Z,16.96
2022-09-23T12:21:50.394Z,17.07
2022-09-23T12:24:42.044Z,17.27
2022-09-23T12:27:23.049Z,17.48
2022-09-23T12:29:56.702Z,17.43
2022-09-23T12:32:27.783Z,17.28
2022-09-23T12:34:57.758Z,17.22
2022-09-23T12:37:30.171Z,17.14
2022-09-23T12:40:07.771Z,17.09
2022-09-23T12:42:41.856Z,16.98
2022-09-23T12:45:43.516Z,16.99
2022-09-23T12:48:49.213Z,17.16
2022-09-23T12:51:23.185Z,17.33
2022-09-23T12:54:23.561Z,17.45
2022-09-23T12:57:01.981Z,17.37
2022-09-23T12:59:49.963Z,17.52
2022-09-23T13:02:33.644Z,17.72
2022-09-23T13:05:36.093Z,17.81
2022-09-23T13:08:09.771Z,17.80
2022-09-23T13:10:45.818Z,17.85
2022-09-23T13:13:24.530Z,18.06
2022-09-23T13:15:55.057Z,17.89
2022-09-23T13:18:52.521Z,17.73
2022-09-23T13:21:58.030Z,17.63
2022-09-23T13:24:40.584Z,17.53
2022-09-23T13:27:36.006Z,17.39
2022-09-23T13:30:23.666Z,17.17
2022-09-23T13:33:06.346Z,17.09
2022-09-23T13:35:39.466Z,17.04
2022-09-23T13:38:19.587Z,16.89
2022-09-23T13:40:49.287Z,16.90
2022-09-23T13:43:24.497Z,16.84
2022-09-23T13:45:55.296Z,16.74
2022-09-23T13:48:27.174Z,16.64
2022-09-23T13:50:56.768Z,16.63
2022-09-23T13:53:29.590Z,16.58
2022-09-23T13:56:04.067Z,16.50
2022-09-23T13:58:35.725Z,16.46
2022-09-23T14:01:10.548Z,16.44
2022-09-23T14:03:40.847Z,16.33
2022-09-23T14:06:14.614Z,16.27
2022-09-23T14:08:48.763Z,16.16
2022-09-23T14:11:19.768Z,16.08
2022-09-23T14:13:51.703Z,16.05
2022-09-23T14:16:21.679Z,16.02
2022-09-23T14:18:52.965Z,15.98
2022-09-23T14:21:29.148Z,15.95
2022-09-23T14:24:13.919Z,15.90
2022-09-23T14:26:45.401Z,15.92
2022-09-23T14:29:18.099Z,15.87
2022-09-23T14:31:57.001Z,15.83
2022-09-23T14:34:44.000Z,15.77
2022-09-23T14:37:51.701Z,15.77
2022-09-23T14:40:25.970Z,15.73
2022-09-23T14:43:01.386Z,15.74
2022-09-23T14:45:37.661Z,15.74
2022-09-23T14:48:12.052Z,15.75
2022-09-23T14:50:49.272Z,15.75
2022-09-23T14:53:42.975Z,15.75
2022-09-23T14:56:20.384Z,15.67
2022-09-23T14:58:55.206Z,15.71
2022-09-23T15:01:38.071Z,15.69
2022-09-23T15:04:18.813Z,15.66
2022-09-23T15:06:55.575Z,15.65
2022-09-23T15:09:32.364Z,15.61
2022-09-23T15:12:07.633Z,15.55
2022-09-23T15:14:41.093Z,15.50
2022-09-23T15:17:32.635Z,15.46
2022-09-23T15:20:35.676Z,15.43
2022-09-23T15:27:38.845Z,15.28
2022-09-23T15:30:31.000Z,15.26
2022-09-23T15:33:01.437Z,15.20
2022-09-23T15:35:32.069Z,15.14
2022-09-23T15:38:03.351Z,15.09
2022-09-23T15:40:34.251Z,15.02
2022-09-23T15:43:20.532Z,15.02
2022-09-23T15:45:53.269Z,14.99
2022-09-23T15:48:25.265Z,14.98
2022-09-23T15:50:55.886Z,14.94
2022-09-23T15:53:27.840Z,14.90
2022-09-23T15:55:58.655Z,14.86
2022-09-23T15:58:29.600Z,14.81
2022-09-23T16:00:59.842Z,14.78
2022-09-23T16:03:29.561Z,14.73
2022-09-23T16:06:03.071Z,14.67
2022-09-23T16:08:33.201Z,14.64
2022-09-23T16:11:02.578Z,14.60
2022-09-23T16:13:33.179Z,14.56
2022-09-23T16:16:02.950Z,14.53
2022-09-23T16:18:32.403Z,14.51
2022-09-23T16:21:01.623Z,14.49
2022-09-23T16:23:38.812Z,14.45
2022-09-23T16:26:15.474Z,14.44
2022-09-23T16:28:47.617Z,14.43
2022-09-23T16:31:17.507Z,14.41
2022-09-23T16:33:48.641Z,14.36
2022-09-23T16:36:23.011Z,14.34
2022-09-23T16:38:55.310Z,14.33
2022-09-23T16:41:24.681Z,14.32
2022-09-23T16:43:56.343Z,14.30
2022-09-23T16:46:25.813Z,14.26
2022-09-23T16:48:57.668Z,14.24
2022-09-23T16:51:29.047Z,14.20
2022-09-23T16:54:00.104Z,14.15
2022-09-23T16:56:32.081Z,14.09
2022-09-23T16:59:02.989Z,14.06
2022-09-23T17:01:50.006Z,13.99
2022-09-23T17:04:22.122Z,13.96
2022-09-23T17:06:52.764Z,13.91
2022-09-23T17:09:25.714Z,13.87
2022-09-23T17:12:01.015Z,13.80
2022-09-23T17:14:34.325Z,13.76
2022-09-23T17:17:03.481Z,13.70
2022-09-23T17:19:34.115Z,13.64
2022-09-23T17:22:03.644Z,13.60
2022-09-23T17:24:32.818Z,13.50
2022-09-23T17:27:02.179Z,13.43
2022-09-23T17:29:32.826Z,13.36
2022-09-23T17:32:02.232Z,13.31
2022-09-23T17:34:33.497Z,13.28
2022-09-23T17:37:02.682Z,13.23
2022-09-23T17:39:31.839Z,13.18
2022-09-23T17:42:03.547Z,13.15
2022-09-23T17:44:35.389Z,13.10
2022-09-23T17:47:05.538Z,13.03
2022-09-23T17:49:35.482Z,12.96
2022-09-23T17:52:05.660Z,12.92
2022-09-23T17:54:36.384Z,12.87
2022-09-23T17:57:06.225Z,12.83
2022-09-23T17:59:37.070Z,12.77
2022-09-23T18:02:06.488Z,12.69
2022-09-23T18:04:35.719Z,12.65
2022-09-23T18:07:05.113Z,12.59
2022-09-23T18:09:34.331Z,12.54
2022-09-23T18:12:03.714Z,12.48
2022-09-23T18:14:33.080Z,12.43
2022-09-23T18:17:03.662Z,12.40
2022-09-23T18:19:32.810Z,12.36
2022-09-23T18:22:02.399Z,12.26
2022-09-23T18:24:33.648Z,12.23
2022-09-23T18:27:04.267Z,12.22
2022-09-23T18:29:35.377Z,12.18
2022-09-23T18:32:07.571Z,12.14
2022-09-23T18:34:38.261Z,12.09
2022-09-23T18:37:15.271Z,12.04
2022-09-23T18:39:45.817Z,12.01
2022-09-23T18:42:15.910Z,11.98
2022-09-23T18:44:45.212Z,11.91
2022-09-23T18:47:35.783Z,11.88
2022-09-23T18:50:23.180Z,11.78
2022-09-23T18:52:53.126Z,11.79
2022-09-23T18:55:22.299Z,11.78
2022-09-23T18:57:52.613Z,11.77
2022-09-23T19:00:22.019Z,11.77
2022-09-23T19:02:53.820Z,11.75
2022-09-23T19:05:23.062Z,11.71
2022-09-23T19:07:53.565Z,11.70
2022-09-23T19:10:22.738Z,11.70
2022-09-23T19:12:51.993Z,11.62
2022-09-23T19:15:21.455Z,11.59
2022-09-23T19:17:54.716Z,11.57
2022-09-23T19:20:24.759Z,11.54
2022-09-23T19:22:54.194Z,11.42
2022-09-23T19:25:23.359Z,11.36
2022-09-23T19:27:53.864Z,11.34
2022-09-23T19:30:22.895Z,11.31
2022-09-23T19:32:53.489Z,11.30
2022-09-23T19:35:23.539Z,11.31
2022-09-23T19:37:53.388Z,11.35
2022-09-23T19:40:23.110Z,11.34
2022-09-23T19:42:54.198Z,11.28
2022-09-23T19:45:23.801Z,11.29
2022-09-23T19:47:58.303Z,11.30
2022-09-23T19:50:27.998Z,11.33
2022-09-23T19:52:59.969Z,11.30
2022-09-23T19:55:29.467Z,11.31
2022-09-23T19:57:59.512Z,11.30
2022-09-23T20:00:29.042Z,11.24
2022-09-23T20:03:00.353Z,11.18
2022-09-23T20:05:29.840Z,11.17
2022-09-23T20:08:00.104Z,11.13
2022-09-23T20:10:29.145Z,11.10
2022-09-23T20:12:59.644Z,11.08
2022-09-23T20:15:29.077Z,11.05
2022-09-23T20:17:59.716Z,11.00
2022-09-23T20:20:29.214Z,10.99
2022-09-23T20:22:58.887Z,10.87
2022-09-23T20:25:28.054Z,10.84
2022-09-23T20:27:57.047Z,10.85
2022-09-23T20:30:26.259Z,10.81
2022-09-23T20:32:55.680Z,10.80
2022-09-23T20:35:26.538Z,10.71
2022-09-23T20:37:55.862Z,10.69
2022-09-23T20:40:25.339Z,10.66
2022-09-23T20:42:55.231Z,10.62
2022-09-23T20:45:24.417Z,10.63
2022-09-23T20:47:53.828Z,10.61
2022-09-23T20:50:23.011Z,10.60
2022-09-23T20:52:56.489Z,10.61
2022-09-23T20:55:26.089Z,10.58
2022-09-23T20:57:55.315Z,10.55
2022-09-23T21:00:24.575Z,10.49
2022-09-23T21:02:54.032Z,10.44
2022-09-23T21:05:23.438Z,10.46
2022-09-23T21:07:54.175Z,10.42
2022-09-23T21:10:23.626Z,10.39
2022-09-23T21:12:52.846Z,10.36
2022-09-23T21:15:22.951Z,10.34
2022-09-23T21:17:52.370Z,10.33
2022-09-23T21:20:21.590Z,10.31
2022-09-23T21:22:53.201Z,10.26
2022-09-23T21:25:28.110Z,10.18
2022-09-23T21:27:58.949Z,10.03
2022-09-23T21:30:30.665Z,9.90
2022-09-23T21:33:01.146Z,9.86
2022-09-23T21:35:31.247Z,9.77
2022-09-23T21:38:03.243Z,9.82
2022-09-23T21:40:50.132Z,9.83
2022-09-23T21:43:20.065Z,9.82
2022-09-23T21:45:49.606Z,9.77
2022-09-23T21:48:18.786Z,9.70
2022-09-23T21:50:56.824Z,9.65
2022-09-23T21:53:29.815Z,9.61
2022-09-23T21:56:07.350Z,9.58
2022-09-23T21:58:38.117Z,9.50
2022-09-23T22:01:10.574Z,9.45
2022-09-23T22:03:40.628Z,9.42
2022-09-23T22:06:12.595Z,9.50
2022-09-23T22:08:45.213Z,9.47
2022-09-23T22:11:30.930Z,9.54
2022-09-23T22:14:01.995Z,9.56
2022-09-23T22:16:31.743Z,9.60
2022-09-23T22:19:01.842Z,9.62
2022-09-23T22:21:31.407Z,9.59
2022-09-23T22:24:03.804Z,9.52
2022-09-23T22:26:35.360Z,9.48
2022-09-23T22:29:22.958Z,9.45
2022-09-23T22:32:09.955Z,9.42
2022-09-23T22:34:50.523Z,9.42
2022-09-23T22:37:22.484Z,9.42
2022-09-23T22:39:53.320Z,9.42
2022-09-23T22:42:22.949Z,9.43
2022-09-23T22:44:52.951Z,9.42
2022-09-23T22:47:22.724Z,9.37
2022-09-23T22:49:55.490Z,9.37
2022-09-23T22:52:25.360Z,9.38
2022-09-23T22:54:56.199Z,9.39
2022-09-23T22:57:25.426Z,9.36
2022-09-23T22:59:54.692Z,9.38
2022-09-23T23:02:24.160Z,9.40
2022-09-23T23:04:53.446Z,9.43
2022-09-23T23:07:23.369Z,9.47
2022-09-23T23:09:53.873Z,9.47
2022-09-23T23:12:24.251Z,9.37
2022-09-23T23:14:53.715Z,9.46
2022-09-23T23:17:22.906Z,9.46
2022-09-23T23:19:52.287Z,9.49
2022-09-23T23:22:21.709Z,9.50
2022-09-23T23:24:54.628Z,9.50
2022-09-23T23:27:25.583Z,9.50
2022-09-23T23:29:54.832Z,9.53
2022-09-23T23:32:24.282Z,9.55
2022-09-23T23:34:53.517Z,9.56
2022-09-23T23:37:22.868Z,9.52
2022-09-23T23:39:52.333Z,9.51
2022-09-23T23:42:21.551Z,9.52
2022-09-23T23:44:52.135Z,9.52
2022-09-23T23:47:22.252Z,9.54
2022-09-23T23:49:51.567Z,9.55
2022-09-23T23:52:20.794Z,9.58
2022-09-23T23:54:51.679Z,9.57
2022-09-23T23:57:20.905Z,9.57
2022-09-23T23:59:51.511Z,9.58
